Gwendolyn Grace — WDA9775 — position and weather

sailwx.info

Track history (hours):
 
Tides and Currents Weather Stations Pressure Air Temp Water Temp Dewpoint Dewpoint Depression Visibility Wind Speed Wind Dir Waves Ship Positions

Gwendolyn Grace

Owner: MARINE EXPRESS, ALAMEDA, CA. More information available from US FCC via Universal Licensing System and Coast Guard Vessel Documentation Center.

Last reported at 2018-Jun-19 01:45 UTC. Time now 2018-Jun-19 20:13 UTC.
Position N 37°47' W 122°17'.

Length 18 m; draft 6 m.

Type: Pilot. MMSI: 366868850.

Date/timePositionNaut miles runAvg speedWind from/ knotsBaromVisibWave heightAir tempDewpointWater temp
2018-Jun-19 01:45N 37°47' W 122°17'0 0.5
2018-Jun-19 01:30N 37°48' W 122°17'0 0.2
2018-Jun-19 01:00N 37°47' W 122°17'0 0.0
2018-Jun-18 18:05N 37°47' W 122°17'0 0.0
2018-Jun-18 18:00N 37°47' W 122°17'3 5.5
2018-Jun-18 17:30N 37°47' W 122°21'1 2.1
2018-Jun-18 17:00N 37°46' W 122°20'0 0.0
2018-Jun-18 16:30N 37°46' W 122°20'0 0.0
2018-Jun-18 16:00N 37°46' W 122°20'0 0.0
2018-Jun-18 15:30N 37°46' W 122°20'0 0.0
2018-Jun-18 15:01N 37°46' W 122°20'2 4.4
2018-Jun-18 14:30N 37°48' W 122°18'1 1.3
2018-Jun-18 14:00N 37°47' W 122°17'  
2018-Jun-14 23:35N 37°47' W 122°17'0 0.1
2018-Jun-14 23:29N 37°47' W 122°17'2 4.9
2018-Jun-14 23:00N 37°48' W 122°20'3 6.3
2018-Jun-14 22:30N 37°46' W 122°23'0 0.5
2018-Jun-14 22:00N 37°46' W 122°23'3 6.6
2018-Jun-14 21:30N 37°48' W 122°19'2 3.2
2018-Jun-14 20:59N 37°47' W 122°17'0 0.0
2018-Jun-12 23:55N 37°47' W 122°17'0 0.0
2018-Jun-12 23:31N 37°47' W 122°17'0 0.0
2018-Jun-12 23:00N 37°47' W 122°17'0 0.0
2018-Jun-12 22:30N 37°47' W 122°17'0 0.0
2018-Jun-12 22:00N 37°47' W 122°17'0 0.0
2018-Jun-12 21:31N 37°47' W 122°17'0 0.0
2018-Jun-12 21:01N 37°47' W 122°17'0 0.0
2018-Jun-12 20:31N 37°47' W 122°17'0 0.0
2018-Jun-12 20:00N 37°47' W 122°17'0 0.0
2018-Jun-11 19:32N 37°47' W 122°17'0 0.0
2018-Jun-11 19:30N 37°47' W 122°17'2 4.0
2018-Jun-11 19:01N 37°48' W 122°20'3 6.6
2018-Jun-11 18:30N 37°46' W 122°23'0 0.2
2018-Jun-11 18:00N 37°46' W 122°23'2 4.5
2018-Jun-11 17:30N 37°47' W 122°21'3 5.9
2018-Jun-11 17:01N 37°47' W 122°17'0 0.0
2018-Jun-11 16:28N 37°47' W 122°17'0 0.0
2018-Jun-11 15:59N 37°47' W 122°17'0 0.0
2018-Jun-11 15:30N 37°47' W 122°17'  
Track history (hours):
 
Tides and Currents Weather Stations Pressure Air Temp Water Temp Dewpoint Dewpoint Depression Visibility Wind Speed Wind Dir Waves Ship Positions

Gwendolyn Grace

Owner: MARINE EXPRESS, ALAMEDA, CA. More information available from US FCC via Universal Licensing System and Coast Guard Vessel Documentation Center.

Last reported at 2018-Jun-19 01:45 UTC. Time now 2018-Jun-19 20:13 UTC.
Position N 37°47' W 122°17'.

Length 18 m; draft 6 m.

Type: Pilot. MMSI: 366868850.

Date/timePositionNaut miles runAvg speedWind from/ knotsBaromVisibWave heightAir tempDewpointWater temp
2018-Jun-19 01:45N 37°47' W 122°17'0 0.5
2018-Jun-19 01:30N 37°48' W 122°17'0 0.2
2018-Jun-19 01:00N 37°47' W 122°17'0 0.0
2018-Jun-18 18:05N 37°47' W 122°17'0 0.0
2018-Jun-18 18:00N 37°47' W 122°17'3 5.5
2018-Jun-18 17:30N 37°47' W 122°21'1 2.1
2018-Jun-18 17:00N 37°46' W 122°20'0 0.0
2018-Jun-18 16:30N 37°46' W 122°20'0 0.0
2018-Jun-18 16:00N 37°46' W 122°20'0 0.0
2018-Jun-18 15:30N 37°46' W 122°20'0 0.0
2018-Jun-18 15:01N 37°46' W 122°20'2 4.4
2018-Jun-18 14:30N 37°48' W 122°18'1 1.3
2018-Jun-18 14:00N 37°47' W 122°17'  
2018-Jun-14 23:35N 37°47' W 122°17'0 0.1
2018-Jun-14 23:29N 37°47' W 122°17'2 4.9
2018-Jun-14 23:00N 37°48' W 122°20'3 6.3
2018-Jun-14 22:30N 37°46' W 122°23'0 0.5
2018-Jun-14 22:00N 37°46' W 122°23'3 6.6
2018-Jun-14 21:30N 37°48' W 122°19'2 3.2
2018-Jun-14 20:59N 37°47' W 122°17'0 0.0
2018-Jun-12 23:55N 37°47' W 122°17'0 0.0
2018-Jun-12 23:31N 37°47' W 122°17'0 0.0
2018-Jun-12 23:00N 37°47' W 122°17'0 0.0
2018-Jun-12 22:30N 37°47' W 122°17'0 0.0
2018-Jun-12 22:00N 37°47' W 122°17'0 0.0
2018-Jun-12 21:31N 37°47' W 122°17'0 0.0
2018-Jun-12 21:01N 37°47' W 122°17'0 0.0
2018-Jun-12 20:31N 37°47' W 122°17'0 0.0
2018-Jun-12 20:00N 37°47' W 122°17'0 0.0
2018-Jun-11 19:32N 37°47' W 122°17'0 0.0
2018-Jun-11 19:30N 37°47' W 122°17'2 4.0
2018-Jun-11 19:01N 37°48' W 122°20'3 6.6
2018-Jun-11 18:30N 37°46' W 122°23'0 0.2
2018-Jun-11 18:00N 37°46' W 122°23'2 4.5
2018-Jun-11 17:30N 37°47' W 122°21'3 5.9
2018-Jun-11 17:01N 37°47' W 122°17'0 0.0
2018-Jun-11 16:28N 37°47' W 122°17'0 0.0
2018-Jun-11 15:59N 37°47' W 122°17'0 0.0
2018-Jun-11 15:30N 37°47' W 122°17'  

Dump ship's entire track history